sensor_id;sensor_type;location;lat;lon;timestamp;P1;durP1;ratioP1;P2;durP2;ratioP2
52614;SDS011;38508;53.158;6.614;2023-02-22T00:01:27;106.35;;;94.72;;
52614;SDS011;38508;53.158;6.614;2023-02-22T00:03:59;106.55;;;95.88;;
52614;SDS011;38508;53.158;6.614;2023-02-22T00:06:29;105.88;;;94.30;;
52614;SDS011;38508;53.158;6.614;2023-02-22T00:08:56;107.45;;;96.93;;
52614;SDS011;38508;53.158;6.614;2023-02-22T00:11:22;107.68;;;97.25;;
52614;SDS011;38508;53.158;6.614;2023-02-22T00:13:49;109.47;;;98.28;;
52614;SDS011;38508;53.158;6.614;2023-02-22T00:16:20;103.85;;;93.53;;
52614;SDS011;38508;53.158;6.614;2023-02-22T00:18:47;109.90;;;98.35;;
52614;SDS011;38508;53.158;6.614;2023-02-22T00:21:14;107.40;;;96.82;;
52614;SDS011;38508;53.158;6.614;2023-02-22T00:23:41;112.45;;;101.35;;
52614;SDS011;38508;53.158;6.614;2023-02-22T00:26:15;116.55;;;104.53;;
52614;SDS011;38508;53.158;6.614;2023-02-22T00:28:47;114.60;;;103.53;;
52614;SDS011;38508;53.158;6.614;2023-02-22T00:31:14;116.60;;;104.88;;
52614;SDS011;38508;53.158;6.614;2023-02-22T00:33:40;112.63;;;101.55;;
52614;SDS011;38508;53.158;6.614;2023-02-22T00:36:06;110.63;;;99.95;;
52614;SDS011;38508;53.158;6.614;2023-02-22T00:38:33;113.50;;;102.13;;
52614;SDS011;38508;53.158;6.614;2023-02-22T00:40:59;115.43;;;104.47;;
52614;SDS011;38508;53.158;6.614;2023-02-22T00:43:25;117.88;;;107.40;;
52614;SDS011;38508;53.158;6.614;2023-02-22T00:45:51;114.30;;;103.10;;
52614;SDS011;38508;53.158;6.614;2023-02-22T00:48:18;112.68;;;101.72;;
52614;SDS011;38508;53.158;6.614;2023-02-22T00:50:44;110.13;;;100.40;;
52614;SDS011;38508;53.158;6.614;2023-02-22T00:53:12;109.32;;;99.53;;
52614;SDS011;38508;53.158;6.614;2023-02-22T00:55:38;113.10;;;102.50;;
52614;SDS011;38508;53.158;6.614;2023-02-22T00:58:05;108.75;;;98.75;;
52614;SDS011;38508;53.158;6.614;2023-02-22T01:00:38;109.55;;;98.88;;
52614;SDS011;38508;53.158;6.614;2023-02-22T01:03:06;106.60;;;96.45;;
52614;SDS011;38508;53.158;6.614;2023-02-22T01:05:34;106.82;;;96.75;;
52614;SDS011;38508;53.158;6.614;2023-02-22T01:08:02;107.97;;;97.78;;
52614;SDS011;38508;53.158;6.614;2023-02-22T01:10:30;106.78;;;96.78;;
52614;SDS011;38508;53.158;6.614;2023-02-22T01:12:57;105.00;;;95.10;;
52614;SDS011;38508;53.158;6.614;2023-02-22T01:15:25;103.70;;;93.90;;
52614;SDS011;38508;53.158;6.614;2023-02-22T01:17:55;105.22;;;95.32;;
52614;SDS011;38508;53.158;6.614;2023-02-22T01:20:22;103.10;;;93.90;;
52614;SDS011;38508;53.158;6.614;2023-02-22T01:22:50;105.30;;;94.45;;
52614;SDS011;38508;53.158;6.614;2023-02-22T01:25:18;103.82;;;93.05;;
52614;SDS011;38508;53.158;6.614;2023-02-22T01:27:47;100.90;;;91.43;;
52614;SDS011;38508;53.158;6.614;2023-02-22T01:30:14;104.00;;;94.47;;
52614;SDS011;38508;53.158;6.614;2023-02-22T01:32:42;106.00;;;96.25;;
52614;SDS011;38508;53.158;6.614;2023-02-22T01:35:10;104.13;;;94.90;;
52614;SDS011;38508;53.158;6.614;2023-02-22T01:37:38;97.45;;;88.65;;
52614;SDS011;38508;53.158;6.614;2023-02-22T01:40:05;99.88;;;90.03;;
52614;SDS011;38508;53.158;6.614;2023-02-22T01:42:32;98.07;;;89.30;;
52614;SDS011;38508;53.158;6.614;2023-02-22T01:48:41;96.93;;;88.45;;
52614;SDS011;38508;53.158;6.614;2023-02-22T01:50:46;93.70;;;85.63;;
52614;SDS011;38508;53.158;6.614;2023-02-22T01:53:18;95.68;;;87.68;;
52614;SDS011;38508;53.158;6.614;2023-02-22T01:55:47;91.68;;;83.43;;
52614;SDS011;38508;53.158;6.614;2023-02-22T01:58:14;89.30;;;81.35;;
52614;SDS011;38508;53.158;6.614;2023-02-22T02:00:43;88.75;;;80.47;;
52614;SDS011;38508;53.158;6.614;2023-02-22T02:03:13;86.50;;;78.70;;
52614;SDS011;38508;53.158;6.614;2023-02-22T02:05:46;85.20;;;77.53;;
52614;SDS011;38508;53.158;6.614;2023-02-22T02:08:34;85.18;;;77.65;;
52614;SDS011;38508;53.158;6.614;2023-02-22T02:11:14;80.38;;;73.60;;
52614;SDS011;38508;53.158;6.614;2023-02-22T02:13:42;84.65;;;76.57;;
52614;SDS011;38508;53.158;6.614;2023-02-22T02:16:08;79.63;;;72.78;;
52614;SDS011;38508;53.158;6.614;2023-02-22T02:18:34;77.68;;;71.07;;
52614;SDS011;38508;53.158;6.614;2023-02-22T02:27:23;82.72;;;75.60;;
52614;SDS011;38508;53.158;6.614;2023-02-22T02:32:21;83.70;;;76.30;;
52614;SDS011;38508;53.158;6.614;2023-02-22T02:37:36;81.25;;;73.80;;
52614;SDS011;38508;53.158;6.614;2023-02-22T02:42:43;82.43;;;75.55;;
52614;SDS011;38508;53.158;6.614;2023-02-22T02:45:44;85.07;;;77.00;;
52614;SDS011;38508;53.158;6.614;2023-02-22T02:48:33;79.63;;;72.15;;
52614;SDS011;38508;53.158;6.614;2023-02-22T02:51:01;78.18;;;71.50;;
52614;SDS011;38508;53.158;6.614;2023-02-22T02:53:38;81.72;;;74.45;;
52614;SDS011;38508;53.158;6.614;2023-02-22T02:58:32;79.37;;;72.13;;
52614;SDS011;38508;53.158;6.614;2023-02-22T03:00:59;79.00;;;72.05;;
52614;SDS011;38508;53.158;6.614;2023-02-22T03:08:58;80.25;;;73.10;;
52614;SDS011;38508;53.158;6.614;2023-02-22T03:11:27;80.00;;;73.13;;
52614;SDS011;38508;53.158;6.614;2023-02-22T03:14:05;82.38;;;74.63;;
52614;SDS011;38508;53.158;6.614;2023-02-22T03:16:49;82.97;;;75.22;;
52614;SDS011;38508;53.158;6.614;2023-02-22T03:22:14;81.10;;;73.43;;
52614;SDS011;38508;53.158;6.614;2023-02-22T03:30:09;84.82;;;76.63;;
52614;SDS011;38508;53.158;6.614;2023-02-22T03:32:41;86.93;;;78.15;;
52614;SDS011;38508;53.158;6.614;2023-02-22T03:35:14;83.63;;;75.72;;
52614;SDS011;38508;53.158;6.614;2023-02-22T03:37:45;88.00;;;79.72;;
52614;SDS011;38508;53.158;6.614;2023-02-22T03:40:15;85.07;;;77.47;;
52614;SDS011;38508;53.158;6.614;2023-02-22T03:42:52;88.30;;;79.70;;
52614;SDS011;38508;53.158;6.614;2023-02-22T03:45:43;88.18;;;79.32;;
52614;SDS011;38508;53.158;6.614;2023-02-22T03:51:01;88.63;;;79.90;;
52614;SDS011;38508;53.158;6.614;2023-02-22T03:53:28;85.22;;;77.15;;
52614;SDS011;38508;53.158;6.614;2023-02-22T03:55:56;86.70;;;78.15;;
52614;SDS011;38508;53.158;6.614;2023-02-22T03:58:23;86.45;;;78.38;;
52614;SDS011;38508;53.158;6.614;2023-02-22T04:00:51;87.40;;;79.05;;
52614;SDS011;38508;53.158;6.614;2023-02-22T04:03:20;88.10;;;79.40;;
52614;SDS011;38508;53.158;6.614;2023-02-22T04:05:47;88.53;;;80.72;;
52614;SDS011;38508;53.158;6.614;2023-02-22T04:08:13;90.90;;;81.57;;
52614;SDS011;38508;53.158;6.614;2023-02-22T04:10:39;83.97;;;75.85;;
52614;SDS011;38508;53.158;6.614;2023-02-22T04:13:05;87.72;;;79.22;;
52614;SDS011;38508;53.158;6.614;2023-02-22T04:15:31;87.05;;;78.95;;
52614;SDS011;38508;53.158;6.614;2023-02-22T04:17:57;93.43;;;84.53;;
52614;SDS011;38508;53.158;6.614;2023-02-22T04:20:23;87.28;;;78.75;;
52614;SDS011;38508;53.158;6.614;2023-02-22T04:22:52;87.13;;;79.25;;
52614;SDS011;38508;53.158;6.614;2023-02-22T04:25:19;90.55;;;81.93;;
52614;SDS011;38508;53.158;6.614;2023-02-22T04:27:47;88.28;;;79.35;;
52614;SDS011;38508;53.158;6.614;2023-02-22T04:30:14;86.97;;;78.90;;
52614;SDS011;38508;53.158;6.614;2023-02-22T04:32:42;88.93;;;79.55;;
52614;SDS011;38508;53.158;6.614;2023-02-22T04:35:07;86.95;;;78.75;;
52614;SDS011;38508;53.158;6.614;2023-02-22T04:37:33;88.65;;;80.15;;
52614;SDS011;38508;53.158;6.614;2023-02-22T04:40:02;98.32;;;81.78;;
52614;SDS011;38508;53.158;6.614;2023-02-22T04:42:32;83.85;;;75.38;;
52614;SDS011;38508;53.158;6.614;2023-02-22T04:44:58;87.55;;;79.43;;
52614;SDS011;38508;53.158;6.614;2023-02-22T04:47:24;85.82;;;76.97;;
52614;SDS011;38508;53.158;6.614;2023-02-22T04:49:50;86.63;;;78.30;;
52614;SDS011;38508;53.158;6.614;2023-02-22T04:52:15;86.47;;;78.05;;
52614;SDS011;38508;53.158;6.614;2023-02-22T04:54:41;94.35;;;78.55;;
52614;SDS011;38508;53.158;6.614;2023-02-22T04:57:07;92.38;;;80.68;;
52614;SDS011;38508;53.158;6.614;2023-02-22T04:59:33;81.30;;;73.20;;
52614;SDS011;38508;53.158;6.614;2023-02-22T05:01:58;82.45;;;73.40;;
52614;SDS011;38508;53.158;6.614;2023-02-22T05:04:25;84.90;;;75.60;;
52614;SDS011;38508;53.158;6.614;2023-02-22T05:06:50;82.72;;;74.32;;
52614;SDS011;38508;53.158;6.614;2023-02-22T05:09:17;84.95;;;75.95;;
52614;SDS011;38508;53.158;6.614;2023-02-22T05:11:43;95.00;;;79.47;;
52614;SDS011;38508;53.158;6.614;2023-02-22T05:14:09;91.90;;;82.15;;
52614;SDS011;38508;53.158;6.614;2023-02-22T05:16:34;90.93;;;81.60;;
52614;SDS011;38508;53.158;6.614;2023-02-22T05:19:00;85.15;;;75.90;;
52614;SDS011;38508;53.158;6.614;2023-02-22T05:21:26;92.75;;;75.22;;
52614;SDS011;38508;53.158;6.614;2023-02-22T05:23:52;84.15;;;74.63;;
52614;SDS011;38508;53.158;6.614;2023-02-22T05:26:17;94.38;;;78.60;;
52614;SDS011;38508;53.158;6.614;2023-02-22T05:28:44;100.82;;;82.15;;
52614;SDS011;38508;53.158;6.614;2023-02-22T05:31:09;88.28;;;75.93;;
52614;SDS011;38508;53.158;6.614;2023-02-22T05:33:35;93.00;;;73.90;;
52614;SDS011;38508;53.158;6.614;2023-02-22T05:36:01;95.80;;;70.20;;
52614;SDS011;38508;53.158;6.614;2023-02-22T05:38:26;102.93;;;65.82;;
52614;SDS011;38508;53.158;6.614;2023-02-22T05:40:52;96.13;;;65.75;;
52614;SDS011;38508;53.158;6.614;2023-02-22T05:43:18;105.57;;;68.30;;
52614;SDS011;38508;53.158;6.614;2023-02-22T05:45:43;99.75;;;66.10;;
52614;SDS011;38508;53.158;6.614;2023-02-22T05:48:09;95.82;;;67.15;;
52614;SDS011;38508;53.158;6.614;2023-02-22T05:50:37;111.10;;;68.28;;
52614;SDS011;38508;53.158;6.614;2023-02-22T05:53:02;102.45;;;64.97;;
52614;SDS011;38508;53.158;6.614;2023-02-22T05:55:29;101.25;;;64.22;;
52614;SDS011;38508;53.158;6.614;2023-02-22T05:57:55;107.13;;;65.07;;
52614;SDS011;38508;53.158;6.614;2023-02-22T06:00:25;106.05;;;64.88;;
52614;SDS011;38508;53.158;6.614;2023-02-22T06:03:05;106.95;;;64.07;;
52614;SDS011;38508;53.158;6.614;2023-02-22T06:05:32;98.57;;;65.00;;
52614;SDS011;38508;53.158;6.614;2023-02-22T06:07:58;99.20;;;60.40;;
52614;SDS011;38508;53.158;6.614;2023-02-22T06:10:24;115.18;;;64.70;;
52614;SDS011;38508;53.158;6.614;2023-02-22T06:12:51;107.88;;;61.40;;
52614;SDS011;38508;53.158;6.614;2023-02-22T06:15:18;97.72;;;58.30;;
52614;SDS011;38508;53.158;6.614;2023-02-22T06:17:45;101.20;;;57.50;;
52614;SDS011;38508;53.158;6.614;2023-02-22T06:20:11;103.32;;;60.30;;
52614;SDS011;38508;53.158;6.614;2023-02-22T06:22:38;102.95;;;59.55;;
52614;SDS011;38508;53.158;6.614;2023-02-22T06:25:08;106.72;;;59.80;;
52614;SDS011;38508;53.158;6.614;2023-02-22T06:27:37;120.53;;;64.72;;
52614;SDS011;38508;53.158;6.614;2023-02-22T06:30:03;113.65;;;61.92;;
52614;SDS011;38508;53.158;6.614;2023-02-22T06:32:29;110.32;;;61.63;;
52614;SDS011;38508;53.158;6.614;2023-02-22T06:34:55;106.22;;;61.85;;
52614;SDS011;38508;53.158;6.614;2023-02-22T06:37:21;116.60;;;62.95;;
52614;SDS011;38508;53.158;6.614;2023-02-22T06:39:47;114.45;;;61.45;;
52614;SDS011;38508;53.158;6.614;2023-02-22T06:42:12;116.30;;;62.95;;
52614;SDS011;38508;53.158;6.614;2023-02-22T06:44:38;112.90;;;62.40;;
52614;SDS011;38508;53.158;6.614;2023-02-22T06:47:04;121.72;;;62.88;;
52614;SDS011;38508;53.158;6.614;2023-02-22T06:49:29;107.18;;;59.67;;
52614;SDS011;38508;53.158;6.614;2023-02-22T06:51:55;127.53;;;65.80;;
52614;SDS011;38508;53.158;6.614;2023-02-22T06:54:21;117.20;;;61.83;;
52614;SDS011;38508;53.158;6.614;2023-02-22T06:56:47;108.65;;;59.45;;
52614;SDS011;38508;53.158;6.614;2023-02-22T06:59:13;125.07;;;60.70;;
52614;SDS011;38508;53.158;6.614;2023-02-22T07:01:40;110.55;;;60.33;;
52614;SDS011;38508;53.158;6.614;2023-02-22T07:04:06;122.55;;;63.72;;
52614;SDS011;38508;53.158;6.614;2023-02-22T07:06:33;119.70;;;61.35;;
52614;SDS011;38508;53.158;6.614;2023-02-22T07:09:00;123.35;;;65.60;;
52614;SDS011;38508;53.158;6.614;2023-02-22T07:11:26;121.30;;;62.72;;
52614;SDS011;38508;53.158;6.614;2023-02-22T07:13:52;127.47;;;64.03;;
52614;SDS011;38508;53.158;6.614;2023-02-22T07:16:19;123.15;;;64.10;;
52614;SDS011;38508;53.158;6.614;2023-02-22T07:18:46;124.55;;;62.15;;
52614;SDS011;38508;53.158;6.614;2023-02-22T07:21:12;130.07;;;62.42;;
52614;SDS011;38508;53.158;6.614;2023-02-22T07:23:37;121.22;;;59.80;;
52614;SDS011;38508;53.158;6.614;2023-02-22T07:26:05;126.90;;;60.60;;
52614;SDS011;38508;53.158;6.614;2023-02-22T07:28:30;132.93;;;62.03;;
52614;SDS011;38508;53.158;6.614;2023-02-22T07:30:56;121.28;;;58.05;;
52614;SDS011;38508;53.158;6.614;2023-02-22T07:33:22;117.68;;;58.83;;
52614;SDS011;38508;53.158;6.614;2023-02-22T07:35:49;125.10;;;57.50;;
52614;SDS011;38508;53.158;6.614;2023-02-22T07:38:16;121.82;;;57.60;;
52614;SDS011;38508;53.158;6.614;2023-02-22T07:40:43;103.82;;;73.93;;
52614;SDS011;38508;53.158;6.614;2023-02-22T07:45:42;139.27;;;81.78;;
52614;SDS011;38508;53.158;6.614;2023-02-22T07:48:08;120.10;;;63.22;;
52614;SDS011;38508;53.158;6.614;2023-02-22T07:50:36;130.85;;;60.03;;
52614;SDS011;38508;53.158;6.614;2023-02-22T07:53:03;131.98;;;56.50;;
52614;SDS011;38508;53.158;6.614;2023-02-22T07:55:31;138.32;;;58.13;;
52614;SDS011;38508;53.158;6.614;2023-02-22T07:57:59;127.68;;;56.20;;
52614;SDS011;38508;53.158;6.614;2023-02-22T08:00:30;125.88;;;57.08;;
52614;SDS011;38508;53.158;6.614;2023-02-22T08:02:59;133.82;;;57.92;;
52614;SDS011;38508;53.158;6.614;2023-02-22T08:05:28;128.45;;;56.97;;
52614;SDS011;38508;53.158;6.614;2023-02-22T08:07:55;131.35;;;57.08;;
52614;SDS011;38508;53.158;6.614;2023-02-22T08:10:22;125.80;;;56.53;;
52614;SDS011;38508;53.158;6.614;2023-02-22T08:12:50;122.43;;;57.38;;
52614;SDS011;38508;53.158;6.614;2023-02-22T08:15:19;120.63;;;54.10;;
52614;SDS011;38508;53.158;6.614;2023-02-22T08:17:45;121.47;;;56.58;;
52614;SDS011;38508;53.158;6.614;2023-02-22T08:20:11;139.80;;;57.65;;
52614;SDS011;38508;53.158;6.614;2023-02-22T08:22:37;129.05;;;60.28;;
52614;SDS011;38508;53.158;6.614;2023-02-22T08:25:04;134.60;;;58.13;;
52614;SDS011;38508;53.158;6.614;2023-02-22T08:27:30;123.70;;;57.17;;
52614;SDS011;38508;53.158;6.614;2023-02-22T08:29:57;128.15;;;56.75;;
52614;SDS011;38508;53.158;6.614;2023-02-22T08:32:23;133.50;;;58.70;;
52614;SDS011;38508;53.158;6.614;2023-02-22T08:34:50;136.90;;;58.65;;
52614;SDS011;38508;53.158;6.614;2023-02-22T08:37:16;125.97;;;55.55;;
52614;SDS011;38508;53.158;6.614;2023-02-22T08:39:42;123.32;;;55.75;;
52614;SDS011;38508;53.158;6.614;2023-02-22T08:42:09;129.00;;;58.80;;
52614;SDS011;38508;53.158;6.614;2023-02-22T08:44:35;125.15;;;59.80;;
52614;SDS011;38508;53.158;6.614;2023-02-22T08:47:02;126.30;;;58.72;;
52614;SDS011;38508;53.158;6.614;2023-02-22T08:49:35;128.45;;;58.47;;
52614;SDS011;38508;53.158;6.614;2023-02-22T08:52:00;129.75;;;60.28;;
52614;SDS011;38508;53.158;6.614;2023-02-22T08:54:26;128.00;;;64.25;;
52614;SDS011;38508;53.158;6.614;2023-02-22T08:56:52;131.45;;;60.53;;
52614;SDS011;38508;53.158;6.614;2023-02-22T08:59:17;126.30;;;62.42;;
52614;SDS011;38508;53.158;6.614;2023-02-22T09:01:43;122.20;;;58.33;;
52614;SDS011;38508;53.158;6.614;2023-02-22T09:04:09;122.18;;;56.70;;
52614;SDS011;38508;53.158;6.614;2023-02-22T09:06:34;126.25;;;57.60;;
52614;SDS011;38508;53.158;6.614;2023-02-22T09:09:00;129.85;;;58.97;;
52614;SDS011;38508;53.158;6.614;2023-02-22T09:11:26;119.75;;;55.55;;
52614;SDS011;38508;53.158;6.614;2023-02-22T09:13:52;129.57;;;58.75;;
52614;SDS011;38508;53.158;6.614;2023-02-22T09:16:18;119.72;;;57.35;;
52614;SDS011;38508;53.158;6.614;2023-02-22T09:18:44;122.80;;;57.58;;
52614;SDS011;38508;53.158;6.614;2023-02-22T09:21:10;134.32;;;60.88;;
52614;SDS011;38508;53.158;6.614;2023-02-22T09:23:36;129.88;;;60.00;;
52614;SDS011;38508;53.158;6.614;2023-02-22T09:26:02;123.53;;;59.80;;
52614;SDS011;38508;53.158;6.614;2023-02-22T09:28:27;120.07;;;54.00;;
52614;SDS011;38508;53.158;6.614;2023-02-22T09:30:53;122.60;;;55.60;;
52614;SDS011;38508;53.158;6.614;2023-02-22T09:33:20;120.32;;;56.67;;
52614;SDS011;38508;53.158;6.614;2023-02-22T09:35:46;114.13;;;54.22;;
52614;SDS011;38508;53.158;6.614;2023-02-22T09:38:20;116.47;;;55.20;;
52614;SDS011;38508;53.158;6.614;2023-02-22T09:40:49;118.53;;;55.58;;
52614;SDS011;38508;53.158;6.614;2023-02-22T09:51:51;110.88;;;53.65;;
52614;SDS011;38508;53.158;6.614;2023-02-22T09:54:35;115.53;;;50.65;;
52614;SDS011;38508;53.158;6.614;2023-02-22T09:57:38;110.13;;;51.78;;
52614;SDS011;38508;53.158;6.614;2023-02-22T10:02:56;115.25;;;52.45;;
52614;SDS011;38508;53.158;6.614;2023-02-22T10:05:36;111.40;;;50.92;;
52614;SDS011;38508;53.158;6.614;2023-02-22T10:08:25;108.85;;;51.55;;
52614;SDS011;38508;53.158;6.614;2023-02-22T10:11:01;120.88;;;51.20;;
52614;SDS011;38508;53.158;6.614;2023-02-22T10:16:33;115.30;;;53.53;;
52614;SDS011;38508;53.158;6.614;2023-02-22T10:19:13;121.30;;;53.88;;
52614;SDS011;38508;53.158;6.614;2023-02-22T10:29:54;128.63;;;55.10;;
52614;SDS011;38508;53.158;6.614;2023-02-22T10:32:25;120.70;;;53.83;;
52614;SDS011;38508;53.158;6.614;2023-02-22T10:34:56;126.00;;;55.20;;
52614;SDS011;38508;53.158;6.614;2023-02-22T10:37:31;116.93;;;51.72;;
52614;SDS011;38508;53.158;6.614;2023-02-22T10:40:02;115.75;;;53.80;;
52614;SDS011;38508;53.158;6.614;2023-02-22T10:42:35;132.57;;;53.28;;
52614;SDS011;38508;53.158;6.614;2023-02-22T10:45:01;112.25;;;51.83;;
52614;SDS011;38508;53.158;6.614;2023-02-22T10:47:27;116.72;;;51.95;;
52614;SDS011;38508;53.158;6.614;2023-02-22T10:49:57;116.72;;;51.90;;
52614;SDS011;38508;53.158;6.614;2023-02-22T10:52:28;119.65;;;51.80;;
52614;SDS011;38508;53.158;6.614;2023-02-22T10:54:58;116.82;;;51.58;;
52614;SDS011;38508;53.158;6.614;2023-02-22T10:57:32;119.40;;;51.40;;
52614;SDS011;38508;53.158;6.614;2023-02-22T11:03:17;132.98;;;55.92;;
52614;SDS011;38508;53.158;6.614;2023-02-22T11:05:44;120.05;;;53.17;;
52614;SDS011;38508;53.158;6.614;2023-02-22T11:10:49;117.63;;;50.55;;
52614;SDS011;38508;53.158;6.614;2023-02-22T11:13:23;120.60;;;52.25;;
52614;SDS011;38508;53.158;6.614;2023-02-22T11:15:50;122.85;;;52.90;;
52614;SDS011;38508;53.158;6.614;2023-02-22T11:18:30;105.93;;;50.80;;
52614;SDS011;38508;53.158;6.614;2023-02-22T11:20:59;105.78;;;48.47;;
52614;SDS011;38508;53.158;6.614;2023-02-22T11:23:32;114.57;;;46.42;;
52614;SDS011;38508;53.158;6.614;2023-02-22T11:26:04;103.80;;;47.38;;
52614;SDS011;38508;53.158;6.614;2023-02-22T11:28:31;108.43;;;47.72;;
52614;SDS011;38508;53.158;6.614;2023-02-22T11:31:07;105.75;;;47.40;;
52614;SDS011;38508;53.158;6.614;2023-02-22T11:33:54;110.30;;;48.10;;
52614;SDS011;38508;53.158;6.614;2023-02-22T11:39:05;104.90;;;51.15;;
52614;SDS011;38508;53.158;6.614;2023-02-22T11:41:51;112.93;;;54.60;;
52614;SDS011;38508;53.158;6.614;2023-02-22T11:46:52;118.00;;;52.33;;
52614;SDS011;38508;53.158;6.614;2023-02-22T11:49:22;108.07;;;47.45;;
52614;SDS011;38508;53.158;6.614;2023-02-22T12:09:07;109.57;;;50.47;;
52614;SDS011;38508;53.158;6.614;2023-02-22T12:19:45;102.47;;;48.28;;
52614;SDS011;38508;53.158;6.614;2023-02-22T12:22:27;110.38;;;56.42;;
52614;SDS011;38508;53.158;6.614;2023-02-22T12:27:42;107.82;;;61.97;;
52614;SDS011;38508;53.158;6.614;2023-02-22T12:30:19;102.68;;;54.55;;
52614;SDS011;38508;53.158;6.614;2023-02-22T12:33:02;111.47;;;55.55;;
52614;SDS011;38508;53.158;6.614;2023-02-22T12:35:34;100.03;;;48.53;;
52614;SDS011;38508;53.158;6.614;2023-02-22T12:43:27;86.20;;;41.80;;
52614;SDS011;38508;53.158;6.614;2023-02-22T12:51:14;93.18;;;42.67;;
52614;SDS011;38508;53.158;6.614;2023-02-22T12:54:36;89.80;;;40.42;;
52614;SDS011;38508;53.158;6.614;2023-02-22T12:56:53;87.75;;;40.83;;
52614;SDS011;38508;53.158;6.614;2023-02-22T13:04:56;85.25;;;37.88;;
52614;SDS011;38508;53.158;6.614;2023-02-22T13:10:05;94.38;;;44.17;;
52614;SDS011;38508;53.158;6.614;2023-02-22T13:18:09;100.47;;;45.58;;
52614;SDS011;38508;53.158;6.614;2023-02-22T13:20:53;81.28;;;39.92;;
52614;SDS011;38508;53.158;6.614;2023-02-22T13:26:11;88.75;;;42.40;;
52614;SDS011;38508;53.158;6.614;2023-02-22T13:48:14;95.43;;;45.42;;
52614;SDS011;38508;53.158;6.614;2023-02-22T13:51:08;91.57;;;43.10;;
52614;SDS011;38508;53.158;6.614;2023-02-22T13:53:41;84.80;;;40.03;;
52614;SDS011;38508;53.158;6.614;2023-02-22T13:56:14;96.80;;;46.90;;
52614;SDS011;38508;53.158;6.614;2023-02-22T13:58:54;84.05;;;38.90;;
52614;SDS011;38508;53.158;6.614;2023-02-22T14:06:52;78.57;;;53.03;;
52614;SDS011;38508;53.158;6.614;2023-02-22T14:15:17;83.10;;;41.22;;
52614;SDS011;38508;53.158;6.614;2023-02-22T14:20:23;91.10;;;60.67;;
52614;SDS011;38508;53.158;6.614;2023-02-22T14:22:55;89.53;;;51.95;;
52614;SDS011;38508;53.158;6.614;2023-02-22T14:27:57;89.80;;;53.42;;
52614;SDS011;38508;53.158;6.614;2023-02-22T14:30:25;85.20;;;43.83;;
52614;SDS011;38508;53.158;6.614;2023-02-22T14:32:53;85.43;;;43.28;;
52614;SDS011;38508;53.158;6.614;2023-02-22T14:35:21;80.70;;;40.85;;
52614;SDS011;38508;53.158;6.614;2023-02-22T14:37:52;87.78;;;43.60;;
52614;SDS011;38508;53.158;6.614;2023-02-22T14:40:28;88.80;;;44.83;;
52614;SDS011;38508;53.158;6.614;2023-02-22T14:45:28;83.53;;;44.50;;
52614;SDS011;38508;53.158;6.614;2023-02-22T14:55:40;93.47;;;48.13;;
52614;SDS011;38508;53.158;6.614;2023-02-22T15:00:47;97.07;;;48.65;;
52614;SDS011;38508;53.158;6.614;2023-02-22T15:06:02;87.57;;;47.90;;
52614;SDS011;38508;53.158;6.614;2023-02-22T15:08:43;88.93;;;46.83;;
52614;SDS011;38508;53.158;6.614;2023-02-22T15:11:28;89.50;;;47.40;;
52614;SDS011;38508;53.158;6.614;2023-02-22T15:13:57;90.50;;;48.67;;
52614;SDS011;38508;53.158;6.614;2023-02-22T15:16:25;85.38;;;68.25;;
52614;SDS011;38508;53.158;6.614;2023-02-22T15:18:57;83.22;;;56.95;;
52614;SDS011;38508;53.158;6.614;2023-02-22T15:21:25;84.47;;;50.20;;
52614;SDS011;38508;53.158;6.614;2023-02-22T15:23:56;84.18;;;46.72;;
52614;SDS011;38508;53.158;6.614;2023-02-22T15:29:07;84.82;;;48.78;;
52614;SDS011;38508;53.158;6.614;2023-02-22T15:31:37;87.88;;;48.85;;
52614;SDS011;38508;53.158;6.614;2023-02-22T15:36:49;81.20;;;46.00;;
52614;SDS011;38508;53.158;6.614;2023-02-22T15:39:28;78.25;;;46.83;;
52614;SDS011;38508;53.158;6.614;2023-02-22T15:44:43;85.13;;;49.53;;
52614;SDS011;38508;53.158;6.614;2023-02-22T15:47:11;86.85;;;48.97;;
52614;SDS011;38508;53.158;6.614;2023-02-22T15:49:45;83.38;;;46.88;;
52614;SDS011;38508;53.158;6.614;2023-02-22T15:55:33;79.45;;;44.35;;
52614;SDS011;38508;53.158;6.614;2023-02-22T16:00:37;79.30;;;46.80;;
52614;SDS011;38508;53.158;6.614;2023-02-22T16:03:17;84.97;;;46.55;;
52614;SDS011;38508;53.158;6.614;2023-02-22T16:05:54;82.70;;;47.72;;
52614;SDS011;38508;53.158;6.614;2023-02-22T16:08:33;77.68;;;43.80;;
52614;SDS011;38508;53.158;6.614;2023-02-22T16:13:40;83.97;;;44.85;;
52614;SDS011;38508;53.158;6.614;2023-02-22T16:18:44;80.07;;;47.75;;
52614;SDS011;38508;53.158;6.614;2023-02-22T16:21:11;85.43;;;46.95;;
52614;SDS011;38508;53.158;6.614;2023-02-22T16:23:52;85.90;;;48.83;;
52614;SDS011;38508;53.158;6.614;2023-02-22T16:26:20;83.47;;;47.63;;
52614;SDS011;38508;53.158;6.614;2023-02-22T16:28:55;77.82;;;46.55;;
52614;SDS011;38508;53.158;6.614;2023-02-22T16:34:17;84.82;;;47.70;;
52614;SDS011;38508;53.158;6.614;2023-02-22T16:36:43;79.22;;;48.45;;
52614;SDS011;38508;53.158;6.614;2023-02-22T16:39:32;81.82;;;47.45;;
52614;SDS011;38508;53.158;6.614;2023-02-22T16:42:00;81.00;;;47.63;;
52614;SDS011;38508;53.158;6.614;2023-02-22T16:44:28;77.63;;;46.53;;
52614;SDS011;38508;53.158;6.614;2023-02-22T16:46:55;75.28;;;44.08;;
52614;SDS011;38508;53.158;6.614;2023-02-22T16:49:24;84.90;;;45.40;;
52614;SDS011;38508;53.158;6.614;2023-02-22T16:51:51;80.38;;;45.85;;
52614;SDS011;38508;53.158;6.614;2023-02-22T16:54:27;78.57;;;45.05;;
52614;SDS011;38508;53.158;6.614;2023-02-22T16:56:58;77.82;;;45.72;;
52614;SDS011;38508;53.158;6.614;2023-02-22T16:59:26;81.53;;;47.53;;
52614;SDS011;38508;53.158;6.614;2023-02-22T17:01:53;69.28;;;45.08;;
52614;SDS011;38508;53.158;6.614;2023-02-22T17:04:21;77.07;;;48.50;;
52614;SDS011;38508;53.158;6.614;2023-02-22T17:06:48;71.47;;;45.13;;
52614;SDS011;38508;53.158;6.614;2023-02-22T17:09:15;71.82;;;46.40;;
52614;SDS011;38508;53.158;6.614;2023-02-22T17:11:44;75.10;;;43.47;;
52614;SDS011;38508;53.158;6.614;2023-02-22T17:14:15;69.40;;;44.35;;
52614;SDS011;38508;53.158;6.614;2023-02-22T17:16:43;72.30;;;45.70;;
52614;SDS011;38508;53.158;6.614;2023-02-22T17:19:13;69.95;;;44.55;;
52614;SDS011;38508;53.158;6.614;2023-02-22T17:21:41;74.93;;;45.75;;
52614;SDS011;38508;53.158;6.614;2023-02-22T17:24:11;71.95;;;44.33;;
52614;SDS011;38508;53.158;6.614;2023-02-22T17:26:38;71.22;;;46.25;;
52614;SDS011;38508;53.158;6.614;2023-02-22T17:29:04;74.72;;;48.13;;
52614;SDS011;38508;53.158;6.614;2023-02-22T17:31:30;71.07;;;46.05;;
52614;SDS011;38508;53.158;6.614;2023-02-22T17:33:57;76.95;;;46.92;;
52614;SDS011;38508;53.158;6.614;2023-02-22T17:36:27;74.75;;;47.65;;
52614;SDS011;38508;53.158;6.614;2023-02-22T17:38:53;81.25;;;49.47;;
52614;SDS011;38508;53.158;6.614;2023-02-22T17:41:19;82.15;;;49.10;;
52614;SDS011;38508;53.158;6.614;2023-02-22T17:43:44;72.20;;;46.97;;
52614;SDS011;38508;53.158;6.614;2023-02-22T17:46:10;73.22;;;47.08;;
52614;SDS011;38508;53.158;6.614;2023-02-22T17:48:36;75.53;;;49.83;;